Time;durP1;ratioP1;P1;durP2;ratioP2;P2;SDS_P1;SDS_P2;PMS_P1;PMS_P2;Temp;Humidity;BMP_temperature;BMP_pressure;BME280_temperature;BME280_humidity;BME280_pressure;Samples;Min_cycle;Max_cycle;Signal;HPM_P1;HPM_P2
2021/07/25 00:00:01;;;;;;;11.95;8.70;;;22.60;83.80;;;;;;5031670;28;20053;-73
2021/07/25 00:02:27;;;;;;;11.70;9.00;;;22.60;83.80;;;;;;5031759;28;20172;-72
2021/07/25 00:04:53;;;;;;;12.38;8.48;;;22.60;83.70;;;;;;5027826;28;20112;-72
2021/07/25 00:07:19;;;;;;;13.93;9.60;;;22.50;83.80;;;;;;5011837;28;20117;-73
2021/07/25 00:09:45;;;;;;;12.30;9.05;;;22.50;83.80;;;;;;5011848;28;20053;-72
2021/07/25 00:12:11;;;;;;;13.40;9.68;;;22.40;84.00;;;;;;5030231;28;20056;-72
2021/07/25 00:14:38;;;;;;;12.10;8.95;;;22.40;84.00;;;;;;5051423;28;20024;-73
2021/07/25 00:17:04;;;;;;;12.73;8.50;;;22.40;83.90;;;;;;5051393;28;20414;-71
2021/07/25 00:19:31;;;;;;;12.68;8.70;;;22.30;84.10;;;;;;5016679;28;20060;-73
2021/07/25 00:21:57;;;;;;;11.38;8.90;;;22.30;84.40;;;;;;5014321;28;20025;-72
2021/07/25 00:24:29;;;;;;;9.55;7.70;;;22.30;84.60;;;;;;5015598;28;20105;-71
2021/07/25 00:26:57;;;;;;;9.93;8.23;;;22.30;84.80;;;;;;5015438;28;20026;-72
2021/07/25 00:29:25;;;;;;;12.65;8.57;;;22.40;85.10;;;;;;5015522;28;20484;-72
2021/07/25 00:31:51;;;;;;;14.15;9.77;;;22.40;85.30;;;;;;5015206;28;20057;-73
2021/07/25 00:34:17;;;;;;;14.10;9.57;;;22.40;85.10;;;;;;5027641;28;20033;-72
2021/07/25 00:36:43;;;;;;;13.02;10.05;;;22.40;85.00;;;;;;5034807;28;20021;-72
2021/07/25 00:39:10;;;;;;;18.33;11.00;;;22.40;84.70;;;;;;5034737;28;20029;-72
2021/07/25 00:41:36;;;;;;;16.30;10.48;;;22.30;83.70;;;;;;5032256;28;20025;-71
2021/07/25 00:44:02;;;;;;;13.88;10.63;;;22.20;83.30;;;;;;5029055;28;20047;-72
2021/07/25 00:46:29;;;;;;;10.95;8.90;;;22.20;83.70;;;;;;5034637;28;20399;-72
2021/07/25 00:48:56;;;;;;;16.33;9.93;;;22.10;84.00;;;;;;5034358;28;20026;-71
2021/07/25 00:51:23;;;;;;;13.68;9.68;;;22.10;84.20;;;;;;5033220;28;20403;-72
2021/07/25 00:53:49;;;;;;;14.73;10.25;;;22.10;84.30;;;;;;5034568;28;20439;-72
2021/07/25 00:56:15;;;;;;;11.00;8.68;;;22.00;84.30;;;;;;5034670;28;20045;-72
2021/07/25 00:58:42;;;;;;;13.00;9.63;;;22.00;84.50;;;;;;5034496;28;20522;-72
2021/07/25 01:01:11;;;;;;;14.32;8.60;;;22.00;84.60;;;;;;5033131;28;20033;-72
2021/07/25 01:04:02;;;;;;;13.93;8.55;;;21.90;84.70;;;;;;5034030;28;20017;-72
2021/07/25 01:06:34;;;;;;;10.98;8.38;;;22.00;85.10;;;;;;5032841;28;20025;-71
2021/07/25 01:09:23;;;;;;;12.30;9.60;;;21.90;84.80;;;;;;5032797;28;20029;-71
2021/07/25 01:12:04;;;;;;;12.77;9.93;;;21.90;84.60;;;;;;5032820;28;20021;-72
2021/07/25 01:14:33;;;;;;;13.98;10.30;;;21.80;84.60;;;;;;5047329;28;20028;-72
2021/07/25 01:17:27;;;;;;;14.80;10.15;;;21.80;84.60;;;;;;5053825;28;20048;-71
2021/07/25 01:19:54;;;;;;;11.82;9.70;;;21.70;85.00;;;;;;5053871;28;20481;-72
2021/07/25 01:22:20;;;;;;;15.73;9.63;;;21.70;84.80;;;;;;5036414;28;20044;-72
2021/07/25 01:24:46;;;;;;;11.43;8.88;;;21.70;84.90;;;;;;5033776;28;20021;-71
2021/07/25 01:27:28;;;;;;;12.80;8.20;;;21.70;85.20;;;;;;5033742;28;20060;-72
2021/07/25 01:29:57;;;;;;;8.90;7.22;;;21.60;85.20;;;;;;5033757;28;20108;-72
2021/07/25 01:32:25;;;;;;;16.77;9.43;;;21.60;85.30;;;;;;5032920;28;20480;-72
2021/07/25 01:34:53;;;;;;;11.20;8.05;;;21.60;85.40;;;;;;5033074;28;20030;-71
2021/07/25 01:37:19;;;;;;;12.27;9.23;;;21.60;85.40;;;;;;5033628;28;20040;-72
2021/07/25 01:39:45;;;;;;;11.85;8.88;;;21.50;85.50;;;;;;5033719;28;20029;-72
2021/07/25 01:42:11;;;;;;;12.30;8.45;;;21.50;85.50;;;;;;5033452;28;20060;-72
2021/07/25 01:44:37;;;;;;;16.25;8.70;;;21.50;85.50;;;;;;5033523;28;20033;-71
2021/07/25 01:47:03;;;;;;;13.40;9.50;;;21.50;85.50;;;;;;5033270;28;20029;-72
2021/07/25 01:49:29;;;;;;;11.88;8.13;;;21.40;85.50;;;;;;5033216;28;20025;-72
2021/07/25 01:51:55;;;;;;;9.68;7.35;;;21.40;85.50;;;;;;5033351;28;20077;-71
2021/07/25 01:54:20;;;;;;;13.02;9.43;;;21.40;85.70;;;;;;5033254;28;20033;-72
2021/07/25 01:56:46;;;;;;;12.57;9.48;;;21.40;85.70;;;;;;5033205;28;20021;-72
2021/07/25 01:59:12;;;;;;;12.48;9.50;;;21.40;85.50;;;;;;5033154;28;20113;-73
2021/07/25 02:01:38;;;;;;;10.30;8.60;;;21.30;85.50;;;;;;5033168;28;20100;-71
2021/07/25 02:04:04;;;;;;;12.48;9.43;;;21.30;85.70;;;;;;5032844;28;20022;-71
2021/07/25 02:06:29;;;;;;;11.27;7.93;;;21.30;85.70;;;;;;5033154;28;20527;-71
2021/07/25 02:08:55;;;;;;;11.73;8.57;;;21.30;85.80;;;;;;5032963;28;20108;-72
2021/07/25 02:11:21;;;;;;;9.65;7.72;;;21.20;85.80;;;;;;5032986;28;20105;-71
2021/07/25 02:13:46;;;;;;;10.30;7.82;;;21.20;85.90;;;;;;5032975;28;20022;-71
2021/07/25 02:16:12;;;;;;;9.00;7.50;;;21.20;86.10;;;;;;5047420;28;20385;-71
2021/07/25 02:18:38;;;;;;;10.52;7.43;;;21.20;86.30;;;;;;5052767;28;20027;-72
2021/07/25 02:21:04;;;;;;;12.45;7.03;;;21.20;86.40;;;;;;5038817;28;20032;-71
2021/07/25 02:23:31;;;;;;;9.13;7.40;;;21.20;86.40;;;;;;5013100;28;20407;-72
2021/07/25 02:25:57;;;;;;;9.00;7.28;;;21.20;86.30;;;;;;5012974;28;20423;-72
2021/07/25 02:28:22;;;;;;;11.70;7.45;;;21.20;86.30;;;;;;5012905;28;20029;-71
2021/07/25 02:30:48;;;;;;;14.80;8.68;;;21.20;86.30;;;;;;5012970;28;20038;-72
2021/07/25 02:33:14;;;;;;;12.63;9.13;;;21.20;86.40;;;;;;5015190;28;20041;-71
2021/07/25 02:35:40;;;;;;;13.23;9.27;;;21.20;86.40;;;;;;5032582;28;20439;-71
2021/07/25 02:38:05;;;;;;;12.63;9.50;;;21.20;86.50;;;;;;5032622;28;20018;-71
2021/07/25 02:40:31;;;;;;;13.57;9.65;;;21.20;86.70;;;;;;5032381;28;20112;-71
2021/07/25 02:42:57;;;;;;;22.05;12.73;;;21.20;86.80;;;;;;5032020;28;20496;-71
2021/07/25 02:45:24;;;;;;;16.45;11.35;;;21.20;86.70;;;;;;5031848;28;20117;-71
2021/07/25 02:47:50;;;;;;;16.88;11.82;;;21.20;86.80;;;;;;5032267;28;20021;-71
2021/07/25 02:50:15;;;;;;;15.25;10.88;;;21.20;87.00;;;;;;5032215;28;20237;-71
2021/07/25 02:52:41;;;;;;;16.40;12.02;;;21.30;87.30;;;;;;5032464;28;20039;-72
2021/07/25 02:55:08;;;;;;;19.98;13.50;;;21.30;87.40;;;;;;5032254;28;20025;-71
2021/07/25 02:57:33;;;;;;;20.08;14.30;;;21.40;87.40;;;;;;5032262;28;20029;-71
2021/07/25 02:59:59;;;;;;;22.58;14.45;;;21.40;87.40;;;;;;5032196;28;20076;-71
2021/07/25 03:02:25;;;;;;;16.35;12.02;;;21.40;87.30;;;;;;5030807;28;20036;-71
2021/07/25 03:04:51;;;;;;;16.67;11.07;;;21.40;87.40;;;;;;5031948;28;20045;-72
2021/07/25 03:07:16;;;;;;;19.02;12.63;;;21.50;87.60;;;;;;5032035;28;20021;-71
2021/07/25 03:09:42;;;;;;;14.25;10.82;;;21.50;87.30;;;;;;5032034;28;20021;-72
2021/07/25 03:12:08;;;;;;;21.35;11.95;;;21.50;87.10;;;;;;5030777;28;20030;-72
2021/07/25 03:14:34;;;;;;;19.45;14.00;;;21.50;86.90;;;;;;5031999;28;20022;-72
2021/07/25 03:16:59;;;;;;;18.90;11.70;;;21.50;86.40;;;;;;5032736;28;20029;-72
2021/07/25 03:19:25;;;;;;;16.42;10.88;;;21.50;86.30;;;;;;5050579;28;20029;-72
2021/07/25 03:21:51;;;;;;;16.85;12.55;;;21.50;86.40;;;;;;5025049;28;20026;-71
2021/07/25 03:24:17;;;;;;;14.25;10.43;;;21.40;86.20;;;;;;5012263;28;20105;-71
2021/07/25 03:26:42;;;;;;;14.07;9.70;;;21.40;86.30;;;;;;5012017;28;20026;-71
2021/07/25 03:29:08;;;;;;;13.68;10.38;;;21.40;86.40;;;;;;5012052;28;20606;-72
2021/07/25 03:31:34;;;;;;;18.35;10.35;;;21.40;86.40;;;;;;5012216;28;20065;-72
2021/07/25 03:34:00;;;;;;;11.15;8.90;;;21.40;86.20;;;;;;5022899;28;20119;-72
2021/07/25 03:36:27;;;;;;;13.07;8.77;;;21.30;86.10;;;;;;5031908;28;20028;-71
2021/07/25 03:38:53;;;;;;;11.73;8.88;;;21.30;86.00;;;;;;5031789;28;20030;-70
2021/07/25 03:41:19;;;;;;;12.13;9.35;;;21.30;86.10;;;;;;5031766;28;20017;-71
2021/07/25 03:43:44;;;;;;;10.90;8.45;;;21.30;86.50;;;;;;5031852;28;20476;-70
2021/07/25 03:46:10;;;;;;;12.38;9.18;;;21.20;86.40;;;;;;5030254;28;20040;-71
2021/07/25 03:48:36;;;;;;;13.35;8.80;;;21.30;86.60;;;;;;5031636;28;20034;-71
2021/07/25 03:51:02;;;;;;;13.90;9.32;;;21.30;86.70;;;;;;5031497;28;20100;-71
2021/07/25 03:53:28;;;;;;;14.07;9.02;;;21.20;86.70;;;;;;5031669;28;20387;-71
2021/07/25 03:55:54;;;;;;;14.77;9.70;;;21.30;86.80;;;;;;5033782;28;20475;-71
2021/07/25 03:58:19;;;;;;;18.15;10.07;;;21.30;86.70;;;;;;5035434;28;20025;-71
2021/07/25 04:00:45;;;;;;;11.70;9.50;;;21.30;86.80;;;;;;5034157;28;20430;-73
2021/07/25 04:03:11;;;;;;;10.68;8.77;;;21.30;86.70;;;;;;5035140;28;20034;-71
2021/07/25 04:05:37;;;;;;;9.93;8.00;;;21.30;86.70;;;;;;5035332;28;20032;-71
2021/07/25 04:08:07;;;;;;;10.13;8.10;;;21.30;86.80;;;;;;5035172;28;20087;-71
2021/07/25 04:10:33;;;;;;;10.52;7.78;;;21.30;86.60;;;;;;5035274;28;20097;-71
2021/07/25 04:12:59;;;;;;;11.40;8.57;;;21.30;86.50;;;;;;5035294;28;20104;-71
2021/07/25 04:15:25;;;;;;;11.63;9.02;;;21.30;86.30;;;;;;5035352;28;20021;-71
2021/07/25 04:17:51;;;;;;;12.32;7.97;;;21.30;86.30;;;;;;5035113;28;20075;-71
2021/07/25 04:20:17;;;;;;;10.77;7.68;;;21.30;86.30;;;;;;5033988;28;20025;-72
2021/07/25 04:22:42;;;;;;;14.23;9.23;;;21.30;86.40;;;;;;5035112;28;20548;-71
2021/07/25 04:25:09;;;;;;;12.65;8.27;;;21.30;86.50;;;;;;5035052;28;20060;-71
2021/07/25 04:27:35;;;;;;;13.35;10.43;;;21.30;86.60;;;;;;5034962;28;20109;-71
2021/07/25 04:30:01;;;;;;;12.77;9.48;;;21.30;86.70;;;;;;5035055;28;20029;-71
2021/07/25 04:32:27;;;;;;;15.65;9.73;;;21.30;86.70;;;;;;5034769;28;20038;-71
2021/07/25 04:34:53;;;;;;;11.50;9.27;;;21.40;87.00;;;;;;5034236;28;20368;-71
2021/07/25 04:37:27;;;;;;;11.25;8.93;;;21.40;87.00;;;;;;5033444;28;20112;-71
2021/07/25 04:39:54;;;;;;;13.32;9.82;;;21.40;87.10;;;;;;5034864;28;20026;-71
2021/07/25 04:42:25;;;;;;;15.45;10.57;;;21.50;87.20;;;;;;5033344;28;20036;-71
2021/07/25 04:45:04;;;;;;;21.38;12.18;;;21.50;87.20;;;;;;5034674;28;20061;-72
2021/07/25 04:47:59;;;;;;;14.88;10.63;;;21.50;86.90;;;;;;5034337;28;20502;-71
2021/07/25 04:50:32;;;;;;;15.00;10.45;;;21.50;86.40;;;;;;5026219;28;20040;-72
2021/07/25 04:53:01;;;;;;;14.63;11.10;;;21.50;86.10;;;;;;5033146;28;20025;-71
2021/07/25 04:55:32;;;;;;;17.38;11.07;;;21.60;86.20;;;;;;5034469;28;20482;-71
2021/07/25 04:58:07;;;;;;;14.75;11.15;;;21.60;86.00;;;;;;5033138;28;20060;-71
2021/07/25 05:00:38;;;;;;;20.50;11.40;;;21.60;85.70;;;;;;5034486;28;20051;-71
2021/07/25 05:03:06;;;;;;;14.40;11.25;;;21.60;85.40;;;;;;5034153;28;20478;-72
2021/07/25 05:05:32;;;;;;;13.73;10.40;;;21.60;85.20;;;;;;5034289;28;20022;-71
2021/07/25 05:08:00;;;;;;;15.75;10.32;;;21.70;85.30;;;;;;5033264;28;20497;-71
2021/07/25 05:10:26;;;;;;;14.68;10.45;;;21.70;85.30;;;;;;5034207;28;20022;-71
2021/07/25 05:13:18;;;;;;;17.20;11.65;;;21.70;85.20;;;;;;5034226;28;20025;-71
2021/07/25 05:15:45;;;;;;;12.25;10.30;;;21.80;85.30;;;;;;5033762;28;20037;-72
2021/07/25 05:18:36;;;;;;;13.32;9.93;;;21.80;85.50;;;;;;5033718;28;20108;-71
2021/07/25 05:21:27;;;;;;;13.60;10.35;;;21.90;86.10;;;;;;5044884;28;20589;-71
2021/07/25 05:23:57;;;;;;;11.95;9.50;;;22.00;86.10;;;;;;5038316;28;20025;-71
2021/07/25 05:26:25;;;;;;;15.75;10.43;;;22.10;85.90;;;;;;5014091;28;20430;-72
2021/07/25 05:28:56;;;;;;;14.43;11.07;;;22.10;85.70;;;;;;5013954;28;20125;-72
2021/07/25 05:31:33;;;;;;;14.43;10.70;;;22.20;85.40;;;;;;5014039;28;20030;-71
2021/07/25 05:34:00;;;;;;;12.07;9.68;;;22.30;84.70;;;;;;5023354;28;20065;-72
2021/07/25 05:36:26;;;;;;;16.58;10.68;;;22.30;84.60;;;;;;5033543;28;20026;-72
2021/07/25 05:38:52;;;;;;;12.20;9.77;;;22.30;84.00;;;;;;5033658;28;20048;-72
2021/07/25 05:41:18;;;;;;;14.45;9.30;;;22.30;82.80;;;;;;5033688;28;20100;-72
2021/07/25 05:43:44;;;;;;;15.70;10.00;;;22.40;82.50;;;;;;5033644;28;20060;-71
2021/07/25 05:46:10;;;;;;;12.48;9.95;;;22.40;82.30;;;;;;5033476;28;20557;-72
2021/07/25 05:48:36;;;;;;;12.15;9.77;;;22.40;81.50;;;;;;5033412;28;20101;-72
2021/07/25 05:51:03;;;;;;;14.60;10.10;;;22.50;81.40;;;;;;5033484;28;20426;-71
2021/07/25 05:53:29;;;;;;;11.77;8.70;;;22.50;80.90;;;;;;5033230;28;20013;-71
2021/07/25 05:55:55;;;;;;;11.27;9.10;;;22.50;80.60;;;;;;5032027;28;20052;-71
2021/07/25 05:58:21;;;;;;;13.20;9.93;;;22.60;80.20;;;;;;5032089;28;20095;-72
2021/07/25 06:00:47;;;;;;;11.90;9.32;;;22.60;79.40;;;;;;5032005;28;20403;-71
2021/07/25 06:03:13;;;;;;;12.45;8.90;;;22.60;79.30;;;;;;5032938;28;20025;-71
2021/07/25 06:05:39;;;;;;;11.95;9.20;;;22.60;79.40;;;;;;5025766;28;20037;-73
2021/07/25 06:08:06;;;;;;;13.18;9.85;;;22.60;80.00;;;;;;5013276;28;20427;-72
2021/07/25 06:10:34;;;;;;;13.80;10.15;;;22.70;79.30;;;;;;5012002;28;20049;-70
2021/07/25 06:13:03;;;;;;;17.35;10.68;;;22.70;79.00;;;;;;5013253;28;20530;-71
2021/07/25 06:15:30;;;;;;;16.45;10.18;;;22.80;78.20;;;;;;5013153;28;20037;-70
2021/07/25 06:17:56;;;;;;;16.40;10.23;;;22.80;77.70;;;;;;5012978;28;20026;-72
2021/07/25 06:20:23;;;;;;;16.58;10.65;;;22.80;77.60;;;;;;5011787;28;20037;-71
2021/07/25 06:22:51;;;;;;;12.77;9.80;;;22.90;76.20;;;;;;5018995;28;20070;-71
2021/07/25 06:25:25;;;;;;;10.93;9.13;;;22.90;75.90;;;;;;5049896;28;20031;-71
2021/07/25 06:27:54;;;;;;;12.40;9.13;;;23.00;76.20;;;;;;5052524;28;20394;-71
2021/07/25 06:30:21;;;;;;;12.18;10.27;;;23.00;75.60;;;;;;5052548;28;20021;-71
2021/07/25 06:32:56;;;;;;;14.73;8.95;;;23.00;73.40;;;;;;5052558;28;20123;-71
2021/07/25 06:35:30;;;;;;;11.10;8.73;;;23.00;73.10;;;;;;5024990;28;20029;-70
2021/07/25 06:38:01;;;;;;;15.60;9.45;;;23.10;73.40;;;;;;5031053;28;20025;-71
2021/07/25 06:40:28;;;;;;;18.48;10.05;;;23.10;73.20;;;;;;5032526;28;20027;-72
2021/07/25 06:42:58;;;;;;;12.25;8.52;;;23.10;71.90;;;;;;5032440;28;20036;-71
2021/07/25 06:45:25;;;;;;;11.73;8.52;;;23.20;73.40;;;;;;5032355;28;20036;-71
2021/07/25 06:47:51;;;;;;;12.57;10.38;;;23.20;72.50;;;;;;5030860;28;20025;-71
2021/07/25 06:50:22;;;;;;;14.88;10.07;;;23.10;71.60;;;;;;5032327;28;20049;-71
2021/07/25 06:52:49;;;;;;;16.15;9.13;;;23.20;71.30;;;;;;5032364;28;20056;-71
2021/07/25 06:55:15;;;;;;;13.27;10.30;;;23.20;71.10;;;;;;5032101;28;20025;-70
2021/07/25 06:57:42;;;;;;;14.63;9.45;;;23.20;71.30;;;;;;5031014;28;20038;-70
2021/07/25 07:00:08;;;;;;;13.70;9.70;;;23.30;71.90;;;;;;5030953;28;20022;-71
2021/07/25 07:02:48;;;;;;;14.32;9.98;;;23.30;72.00;;;;;;5032190;28;20037;-71
2021/07/25 07:05:15;;;;;;;16.27;9.25;;;23.40;72.00;;;;;;5031969;28;20052;-73
2021/07/25 07:07:41;;;;;;;16.20;9.43;;;23.50;72.20;;;;;;5032054;28;20095;-71
2021/07/25 07:10:07;;;;;;;12.27;9.55;;;23.50;72.10;;;;;;5032072;28;20029;-72
2021/07/25 07:12:35;;;;;;;12.70;9.15;;;23.60;71.50;;;;;;5032070;28;20116;-71
2021/07/25 07:15:05;;;;;;;12.10;8.73;;;23.70;71.40;;;;;;5031958;28;20024;-71
2021/07/25 07:17:31;;;;;;;9.05;7.72;;;23.70;72.10;;;;;;5031995;28;20715;-71
2021/07/25 07:19:57;;;;;;;11.52;8.35;;;23.80;72.20;;;;;;5030694;28;20029;-71
2021/07/25 07:22:30;;;;;;;15.75;9.00;;;23.90;72.50;;;;;;5029374;28;20030;-71
2021/07/25 07:24:56;;;;;;;17.73;9.57;;;24.00;71.90;;;;;;5012221;28;20026;-70
2021/07/25 07:27:23;;;;;;;15.45;9.27;;;24.00;71.10;;;;;;5012197;28;20125;-70
2021/07/25 07:29:50;;;;;;;17.38;9.73;;;24.10;70.60;;;;;;5023877;28;20395;-71
2021/07/25 07:32:16;;;;;;;17.85;9.45;;;24.10;69.70;;;;;;5035898;28;20403;-71
2021/07/25 07:34:42;;;;;;;13.77;9.95;;;24.10;69.60;;;;;;5017548;28;20081;-71
2021/07/25 07:37:07;;;;;;;12.75;9.13;;;24.20;69.60;;;;;;5016078;28;20053;-71
2021/07/25 07:39:39;;;;;;;11.93;8.95;;;24.20;69.70;;;;;;5016111;28;20021;-71
2021/07/25 07:42:06;;;;;;;13.30;10.13;;;24.30;69.90;;;;;;5016096;28;20105;-71
2021/07/25 07:44:32;;;;;;;14.23;10.05;;;24.30;68.80;;;;;;5015990;28;20527;-71
2021/07/25 07:46:59;;;;;;;13.35;8.75;;;24.40;68.30;;;;;;5015836;28;20030;-70
2021/07/25 07:49:25;;;;;;;13.25;8.73;;;24.40;68.30;;;;;;5015805;28;20029;-71
2021/07/25 07:51:51;;;;;;;15.10;9.27;;;24.50;67.80;;;;;;5015942;28;20029;-71
2021/07/25 07:54:17;;;;;;;13.57;9.13;;;24.50;67.50;;;;;;5016018;28;20029;-71
2021/07/25 07:56:43;;;;;;;12.15;8.82;;;24.50;67.20;;;;;;5035379;28;20100;-72
2021/07/25 07:59:09;;;;;;;12.13;9.43;;;24.60;67.20;;;;;;5034040;28;20037;-71
2021/07/25 08:01:34;;;;;;;15.02;8.95;;;24.70;66.80;;;;;;5035488;28;20109;-71
2021/07/25 08:04:00;;;;;;;11.98;8.35;;;24.70;66.10;;;;;;5035374;28;20068;-71
2021/07/25 08:06:26;;;;;;;15.20;8.52;;;24.70;66.20;;;;;;5035284;28;20087;-71
2021/07/25 08:08:51;;;;;;;8.68;7.63;;;24.70;66.00;;;;;;5035299;28;20485;-72
2021/07/25 08:11:17;;;;;;;11.88;8.05;;;24.80;66.00;;;;;;5035247;28;20155;-72
2021/07/25 08:13:43;;;;;;;11.43;7.97;;;24.80;66.40;;;;;;5035240;28;20017;-71
2021/07/25 08:16:10;;;;;;;13.70;8.60;;;24.90;65.90;;;;;;5035113;28;20045;-71
2021/07/25 08:18:35;;;;;;;10.35;7.95;;;24.90;65.70;;;;;;5035111;28;20022;-71
2021/07/25 08:21:02;;;;;;;11.05;8.20;;;24.90;65.90;;;;;;5035108;28;20025;-71
2021/07/25 08:23:28;;;;;;;9.07;7.28;;;24.90;65.00;;;;;;5035002;28;20080;-70
2021/07/25 08:25:54;;;;;;;10.13;8.00;;;25.00;65.60;;;;;;5034857;28;20591;-71
2021/07/25 08:28:20;;;;;;;11.18;8.05;;;25.00;65.60;;;;;;5034736;28;20108;-71
2021/07/25 08:30:45;;;;;;;9.00;7.43;;;25.10;64.70;;;;;;5034152;28;20112;-71
2021/07/25 08:33:11;;;;;;;15.18;8.88;;;25.20;65.10;;;;;;5034449;28;20068;-71
2021/07/25 08:35:37;;;;;;;12.88;9.68;;;25.20;64.10;;;;;;5033559;28;20043;-70
2021/07/25 08:38:03;;;;;;;12.02;8.48;;;25.20;64.10;;;;;;5034689;28;20407;-71
2021/07/25 08:40:31;;;;;;;13.27;8.48;;;25.30;65.10;;;;;;5034729;28;20034;-71
2021/07/25 08:43:03;;;;;;;11.95;7.30;;;25.40;64.50;;;;;;5033367;28;20144;-71
2021/07/25 08:45:33;;;;;;;10.00;7.85;;;25.40;64.50;;;;;;5034691;28;20100;-71
2021/07/25 08:48:22;;;;;;;14.80;9.50;;;25.50;64.20;;;;;;5034230;28;20056;-71
2021/07/25 08:51:05;;;;;;;17.10;8.63;;;25.60;63.50;;;;;;5034177;28;20045;-71
2021/07/25 08:53:35;;;;;;;12.07;8.48;;;25.60;63.40;;;;;;5034449;28;20044;-70
2021/07/25 08:56:02;;;;;;;10.88;6.80;;;25.70;62.70;;;;;;5034344;28;20036;-71
2021/07/25 08:58:29;;;;;;;14.70;9.13;;;25.80;64.40;;;;;;5034437;28;20026;-71
2021/07/25 09:00:55;;;;;;;9.98;7.60;;;25.90;63.10;;;;;;5034016;28;20419;-72
2021/07/25 09:03:23;;;;;;;11.13;8.57;;;26.00;63.50;;;;;;5033112;28;20048;-70
2021/07/25 09:05:52;;;;;;;9.25;6.97;;;26.10;63.50;;;;;;5034272;28;20032;-71
2021/07/25 09:08:23;;;;;;;11.18;7.22;;;26.10;63.00;;;;;;5034070;28;20160;-71
2021/07/25 09:10:49;;;;;;;14.07;8.30;;;26.20;63.60;;;;;;5034203;28;20021;-71
2021/07/25 09:13:15;;;;;;;13.48;8.18;;;26.30;62.10;;;;;;5032841;28;20060;-71
2021/07/25 09:15:41;;;;;;;11.32;7.88;;;26.40;63.10;;;;;;5032760;28;20410;-71
2021/07/25 09:18:07;;;;;;;14.85;8.65;;;26.50;62.80;;;;;;5034036;28;20044;-71
2021/07/25 09:20:34;;;;;;;13.13;8.45;;;26.50;62.60;;;;;;5034006;28;20036;-70
2021/07/25 09:23:20;;;;;;;9.77;7.90;;;26.60;62.70;;;;;;5033298;28;20033;-71
2021/07/25 09:25:53;;;;;;;15.38;9.35;;;26.70;63.90;;;;;;5032383;28;20064;-72
2021/07/25 09:28:30;;;;;;;13.73;8.65;;;26.80;62.30;;;;;;5033638;28;20025;-71
2021/07/25 09:31:09;;;;;;;12.70;8.88;;;26.80;61.80;;;;;;5032301;28;20055;-71
2021/07/25 09:33:36;;;;;;;12.15;9.55;;;26.90;62.90;;;;;;5037810;28;20044;-71
2021/07/25 09:36:05;;;;;;;12.45;9.30;;;27.00;62.00;;;;;;5053643;28;20029;-71
2021/07/25 09:38:31;;;;;;;18.27;10.27;;;27.10;61.30;;;;;;5052314;28;20159;-71
2021/07/25 09:40:57;;;;;;;12.77;9.05;;;27.10;61.40;;;;;;5037770;28;20025;-71
2021/07/25 09:43:25;;;;;;;14.07;10.45;;;27.20;61.90;;;;;;5032255;28;20471;-72
2021/07/25 09:45:54;;;;;;;14.48;11.25;;;27.20;60.60;;;;;;5032619;28;20029;-71
2021/07/25 09:48:25;;;;;;;17.52;10.38;;;27.30;61.30;;;;;;5032682;28;20021;-71
2021/07/25 09:50:53;;;;;;;12.10;9.18;;;27.40;60.70;;;;;;5033532;28;20112;-71
2021/07/25 09:53:20;;;;;;;17.23;9.32;;;27.40;60.50;;;;;;5033002;28;20096;-71
2021/07/25 09:55:46;;;;;;;11.18;8.43;;;27.50;61.70;;;;;;5033110;28;20021;-71
2021/07/25 09:58:12;;;;;;;13.40;9.77;;;27.60;62.40;;;;;;5033305;28;20062;-71
2021/07/25 10:00:46;;;;;;;17.25;11.55;;;27.70;60.80;;;;;;5033039;28;20060;-73
2021/07/25 10:03:17;;;;;;;15.18;10.68;;;27.80;59.60;;;;;;5033241;28;20108;-71
2021/07/25 10:05:44;;;;;;;15.75;10.60;;;27.80;59.40;;;;;;5033128;28;20446;-73
2021/07/25 10:08:17;;;;;;;17.23;10.60;;;27.90;60.40;;;;;;5033029;28;20030;-70
2021/07/25 10:10:48;;;;;;;23.10;12.55;;;27.90;59.10;;;;;;5033044;28;20028;-71
2021/07/25 10:13:20;;;;;;;19.27;12.52;;;28.00;58.60;;;;;;5033051;28;20087;-73
2021/07/25 10:15:54;;;;;;;16.70;10.95;;;28.10;57.90;;;;;;5032949;28;20022;-70
2021/07/25 10:18:24;;;;;;;20.95;12.10;;;28.20;58.90;;;;;;5032934;28;20079;-70
2021/07/25 10:20:59;;;;;;;19.25;10.90;;;28.20;57.40;;;;;;5032887;28;20025;-71
2021/07/25 10:23:33;;;;;;;12.73;8.93;;;28.30;55.40;;;;;;5031533;28;20025;-71
2021/07/25 10:26:02;;;;;;;10.65;8.10;;;28.30;54.80;;;;;;5028901;28;20046;-71
2021/07/25 10:28:30;;;;;;;13.35;8.18;;;28.30;55.00;;;;;;5013860;28;20021;-71
2021/07/25 10:30:58;;;;;;;13.30;9.07;;;28.40;55.50;;;;;;5032866;28;20017;-71
2021/07/25 10:33:26;;;;;;;13.25;7.32;;;28.40;55.40;;;;;;5031137;28;20080;-71
2021/07/25 10:35:54;;;;;;;10.75;7.53;;;28.50;55.50;;;;;;5035560;28;20095;-72
2021/07/25 10:38:20;;;;;;;11.20;7.60;;;28.60;55.80;;;;;;5052446;28;20382;-71
2021/07/25 10:40:49;;;;;;;9.68;6.72;;;28.70;53.80;;;;;;5052434;28;20029;-72
2021/07/25 10:43:20;;;;;;;14.98;7.47;;;28.70;53.30;;;;;;5052211;28;20029;-72
2021/07/25 10:46:16;;;;;;;13.02;6.57;;;28.80;53.90;;;;;;5052365;28;20033;-72
2021/07/25 10:49:00;;;;;;;9.43;6.85;;;28.80;55.20;;;;;;5047678;28;20086;-71
2021/07/25 10:51:32;;;;;;;;;;;28.90;54.70;;;;;;5051389;28;20475;-72
2021/07/25 10:54:22;;;;;;;10.13;6.50;;;29.00;56.30;;;;;;5052152;28;19915;-72
2021/07/25 10:57:11;;;;;;;9.27;5.80;;;29.10;54.10;;;;;;5041505;28;20022;-72
2021/07/25 10:59:45;;;;;;;12.65;7.18;;;29.20;53.30;;;;;;5031873;28;20105;-72
2021/07/25 11:02:22;;;;;;;10.23;6.63;;;29.30;52.30;;;;;;5032218;28;20075;-72
2021/07/25 11:04:48;;;;;;;7.53;5.43;;;29.40;54.90;;;;;;5031415;28;20029;-73
2021/07/25 11:07:23;;;;;;;10.88;6.13;;;29.50;54.50;;;;;;5032028;28;20033;-72
2021/07/25 11:09:55;;;;;;;8.40;6.22;;;29.60;54.10;;;;;;5032128;28;20032;-72
2021/07/25 11:12:21;;;;;;;13.10;7.30;;;29.70;53.00;;;;;;5030893;28;20029;-72
2021/07/25 11:14:57;;;;;;;9.05;5.95;;;29.80;50.60;;;;;;5032071;28;20144;-72
2021/07/25 11:17:44;;;;;;;7.43;5.40;;;29.80;51.90;;;;;;5032029;28;20045;-72
2021/07/25 11:20:42;;;;;;;6.78;5.00;;;29.80;52.20;;;;;;5032580;28;20064;-72
2021/07/25 11:23:18;;;;;;;7.72;5.07;;;29.90;52.70;;;;;;5032092;28;20032;-72
2021/07/25 11:25:45;;;;;;;7.25;5.10;;;30.00;52.80;;;;;;5031846;28;20083;-73
2021/07/25 11:28:11;;;;;;;4.95;4.20;;;30.00;51.00;;;;;;5031745;28;20026;-72
2021/07/25 11:31:00;;;;;;;6.18;4.78;;;30.00;52.10;;;;;;5031310;28;20026;-73
2021/07/25 11:33:38;;;;;;;6.53;4.90;;;30.10;52.60;;;;;;5028548;28;20053;-72
2021/07/25 11:36:05;;;;;;;6.85;4.85;;;30.10;51.30;;;;;;5030799;28;20076;-73
2021/07/25 11:38:33;;;;;;;8.63;5.32;;;30.10;52.10;;;;;;5039458;28;20104;-72
2021/07/25 11:40:59;;;;;;;6.95;5.10;;;30.20;50.40;;;;;;5051884;28;20028;-72
2021/07/25 11:43:25;;;;;;;7.00;4.90;;;30.10;51.60;;;;;;5051797;28;20032;-72
2021/07/25 11:45:51;;;;;;;8.75;5.60;;;30.20;53.10;;;;;;5051872;28;20032;-73
2021/07/25 11:48:21;;;;;;;8.65;5.70;;;30.20;51.10;;;;;;5051854;28;20025;-72
2021/07/25 11:50:47;;;;;;;7.45;5.28;;;30.20;50.70;;;;;;5053228;28;20042;-74
2021/07/25 11:53:16;;;;;;;10.30;5.80;;;30.20;50.90;;;;;;5051712;28;20025;-73
2021/07/25 11:55:42;;;;;;;9.82;5.07;;;30.20;49.70;;;;;;5051732;28;20059;-73
2021/07/25 11:58:14;;;;;;;6.95;4.68;;;30.20;50.80;;;;;;5031769;28;20069;-73
2021/07/25 12:00:41;;;;;;;6.78;4.75;;;30.20;50.50;;;;;;5030569;28;20053;-72
2021/07/25 12:03:07;;;;;;;5.97;4.75;;;30.20;51.90;;;;;;5031811;28;20032;-72
2021/07/25 12:05:32;;;;;;;5.88;4.63;;;30.30;51.10;;;;;;5030057;28;20032;-72
2021/07/25 12:08:11;;;;;;;5.60;4.25;;;30.30;51.20;;;;;;5031436;28;20025;-72
2021/07/25 12:10:37;;;;;;;6.43;4.13;;;30.30;51.40;;;;;;5031085;28;20029;-71
2021/07/25 12:13:04;;;;;;;5.53;4.63;;;30.40;52.00;;;;;;5031334;28;20091;-71
2021/07/25 12:15:30;;;;;;;6.38;4.70;;;30.50;51.20;;;;;;5031557;28;20021;-75
2021/07/25 12:17:57;;;;;;;6.25;4.95;;;30.50;50.40;;;;;;5033865;28;20025;-75
2021/07/25 12:20:28;;;;;;;5.72;4.30;;;30.50;48.90;;;;;;5035224;28;20097;-75
2021/07/25 12:23:02;;;;;;;7.78;4.65;;;30.60;50.00;;;;;;5034858;28;20029;-75
2021/07/25 12:25:32;;;;;;;6.03;4.43;;;30.70;50.80;;;;;;5034790;28;20026;-74
2021/07/25 12:28:21;;;;;;;6.80;4.68;;;30.70;51.50;;;;;;5014019;28;20029;-75
2021/07/25 12:30:57;;;;;;;7.70;5.05;;;30.80;51.80;;;;;;5033669;28;20807;-74
2021/07/25 12:33:30;;;;;;;5.57;4.53;;;30.90;50.10;;;;;;5034924;28;20053;-74
2021/07/25 12:36:08;;;;;;;5.65;4.10;;;31.00;51.00;;;;;;5034968;28;20091;-74
2021/07/25 12:38:34;;;;;;;5.80;4.95;;;31.10;52.10;;;;;;5033842;28;20434;-74
2021/07/25 12:41:03;;;;;;;5.13;3.83;;;31.30;51.20;;;;;;5034753;28;20029;-75
2021/07/25 12:43:29;;;;;;;7.57;4.90;;;31.40;51.80;;;;;;5033543;28;20037;-74